Time,TemperatureF,DewpointF,PressureIn,WindDirection,WindDirectionDegrees,WindSpeedMPH,WindSpeedGustMPH,Humidity,HourlyPrecipIn,Conditions,Clouds,dailyrainin,SoftwareType,DateUTC
2013-06-27 00:00:00,68.3,63.3,29.97,NE,48,0.0,0.0,84,0.00,,CLR,0.00,VWS V14.00,2013-06-27 04:00:00,
2013-06-27 00:01:00,68.1,63.4,29.97,NE,48,0.0,0.0,85,0.00,,CLR,0.00,VWS V14.00,2013-06-27 04:01:00,
2013-06-27 00:02:00,68.1,63.4,29.97,NE,48,2.5,2.7,85,0.00,,CLR,0.00,VWS V14.00,2013-06-27 04:02:00,
2013-06-27 00:07:00,68.1,64.1,29.97,NE,48,0.0,0.0,87,0.00,,CLR,0.00,VWS V14.00,2013-06-27 04:07:00,
2013-06-27 00:12:00,67.9,63.9,29.97,NE,48,0.0,0.0,87,0.00,,CLR,0.00,VWS V14.00,2013-06-27 04:12:00,
2013-06-27 00:17:00,68.3,64.3,29.97,NE,48,0.0,0.0,87,0.00,,CLR,0.00,VWS V14.00,2013-06-27 04:17:00,
2013-06-27 00:22:00,68.5,64.1,29.97,NE,48,0.0,0.0,86,0.00,,CLR,0.00,VWS V14.00,2013-06-27 04:22:00,
2013-06-27 00:28:00,68.5,64.1,29.97,NE,48,0.0,0.0,86,0.00,,CLR,0.00,VWS V14.00,2013-06-27 04:28:00,
2013-06-27 00:33:00,68.3,64.3,29.97,NE,48,0.0,0.0,87,0.00,,CLR,0.00,VWS V14.00,2013-06-27 04:33:00,
2013-06-27 00:38:00,68.5,64.1,29.97,NE,48,0.0,0.0,86,0.00,,CLR,0.00,VWS V14.00,2013-06-27 04:38:00,
2013-06-27 00:43:00,68.7,64.3,29.97,NE,48,0.0,0.0,86,0.00,,CLR,0.00,VWS V14.00,2013-06-27 04:43:00,
2013-06-27 00:48:00,68.7,64.3,29.94,NE,48,0.0,0.0,86,0.00,,CLR,0.00,VWS V14.00,2013-06-27 04:48:00,
2013-06-27 00:53:00,68.7,64.3,29.94,NE,48,0.0,0.0,86,0.00,,CLR,0.00,VWS V14.00,2013-06-27 04:53:00,
2013-06-27 00:58:00,68.8,64.5,29.94,NE,48,2.5,2.7,86,0.00,,CLR,0.00,VWS V14.00,2013-06-27 04:58:00,
2013-06-27 01:03:00,68.7,64.3,29.94,NE,48,0.0,0.0,86,0.00,,SCT120,0.00,VWS V14.00,2013-06-27 05:03:00,
2013-06-27 01:08:00,68.5,64.1,29.94,NE,48,0.0,0.0,86,0.00,,SCT120,0.00,VWS V14.00,2013-06-27 05:08:00,
2013-06-27 01:13:00,68.5,64.5,29.94,NE,48,0.0,0.0,87,0.00,,SCT120,0.00,VWS V14.00,2013-06-27 05:13:00,
2013-06-27 01:18:00,68.5,64.5,29.94,NE,48,0.0,0.0,87,0.00,,SCT120,0.00,VWS V14.00,2013-06-27 05:18:00,
2013-06-27 01:24:00,68.3,64.6,29.94,NE,48,0.0,0.0,88,0.00,,SCT120,0.00,VWS V14.00,2013-06-27 05:24:00,
2013-06-27 01:29:00,68.5,64.8,29.94,NE,48,2.5,2.7,88,0.00,,SCT120,0.00,VWS V14.00,2013-06-27 05:29:00,
2013-06-27 01:34:00,68.3,64.6,29.94,NE,48,2.5,2.7,88,0.00,,SCT120,0.00,VWS V14.00,2013-06-27 05:34:00,
2013-06-27 01:39:00,68.1,64.8,29.94,NE,48,0.0,2.7,89,0.00,,SCT120,0.00,VWS V14.00,2013-06-27 05:39:00,
2013-06-27 01:44:00,67.9,64.6,29.94,NNW,331,3.9,4.3,89,0.00,,SCT120,0.00,VWS V14.00,2013-06-27 05:44:00,
2013-06-27 01:49:00,67.7,64.7,29.94,NNW,331,0.0,0.0,90,0.00,,SCT120,0.00,VWS V14.00,2013-06-27 05:49:00,
2013-06-27 01:54:00,67.9,64.9,29.94,NNW,331,0.0,0.0,90,0.00,,SCT120,0.00,VWS V14.00,2013-06-27 05:54:00,
2013-06-27 01:59:00,67.6,64.8,29.94,NNW,331,0.0,0.0,91,0.00,,SCT120,0.00,VWS V14.00,2013-06-27 05:59:00,
2013-06-27 02:04:00,67.7,65.0,29.94,NNW,331,0.0,0.0,91,0.00,,CLR,0.00,VWS V14.00,2013-06-27 06:04:00,
2013-06-27 02:09:00,67.9,65.2,29.94,NNW,331,0.0,0.0,91,0.00,,CLR,0.00,VWS V14.00,2013-06-27 06:09:00,
2013-06-27 02:14:00,67.9,65.2,29.94,NE,43,0.0,0.0,91,0.00,,CLR,0.00,VWS V14.00,2013-06-27 06:14:00,
2013-06-27 02:15:00,67.9,65.2,29.94,NE,43,0.0,0.0,91,0.00,,CLR,0.00,VWS V14.00,2013-06-27 06:15:00,
2013-06-27 02:20:00,67.7,65.0,29.94,NE,43,0.0,0.0,91,0.00,,CLR,0.00,VWS V14.00,2013-06-27 06:20:00,
2013-06-27 02:25:00,67.7,65.0,29.94,NE,43,0.0,0.0,91,0.00,,CLR,0.00,VWS V14.00,2013-06-27 06:25:00,
2013-06-27 02:30:00,67.7,65.0,29.94,NE,43,0.0,0.0,91,0.00,,CLR,0.00,VWS V14.00,2013-06-27 06:30:00,
2013-06-27 02:35:00,67.9,65.2,29.94,NE,43,0.0,0.0,91,0.00,,CLR,0.00,VWS V14.00,2013-06-27 06:35:00,
2013-06-27 02:40:00,67.9,65.2,29.94,NE,43,0.0,0.0,91,0.00,,CLR,0.00,VWS V14.00,2013-06-27 06:40:00,
2013-06-27 02:45:00,67.7,65.0,29.91,NE,43,0.0,0.0,91,0.00,,CLR,0.00,VWS V14.00,2013-06-27 06:45:00,
2013-06-27 02:50:00,67.7,65.0,29.91,NE,43,0.0,0.0,91,0.00,,CLR,0.00,VWS V14.00,2013-06-27 06:50:00,
2013-06-27 02:56:00,67.6,64.8,29.91,NE,43,0.0,0.0,91,0.00,,CLR,0.00,VWS V14.00,2013-06-27 06:56:00,
2013-06-27 03:01:00,67.6,64.8,29.91,NE,43,2.5,2.7,91,0.00,,CLR,0.00,VWS V14.00,2013-06-27 07:01:00,
2013-06-27 03:06:00,67.4,65.0,29.91,NE,43,0.0,0.0,92,0.00,,SCT045,0.00,VWS V14.00,2013-06-27 07:06:00,
2013-06-27 03:11:00,67.2,64.8,29.91,NE,43,0.0,0.0,92,0.00,,SCT045,0.00,VWS V14.00,2013-06-27 07:11:00,
2013-06-27 03:16:00,67.0,64.9,29.91,NE,43,0.0,0.0,93,0.00,,SCT045,0.00,VWS V14.00,2013-06-27 07:16:00,
2013-06-27 03:21:00,67.2,65.1,29.91,NE,43,0.0,0.0,93,0.00,,SCT045,0.00,VWS V14.00,2013-06-27 07:21:00,
2013-06-27 03:26:00,67.0,65.2,29.91,NE,43,0.0,0.0,94,0.00,,SCT045,0.00,VWS V14.00,2013-06-27 07:26:00,
2013-06-27 03:31:00,67.0,65.2,29.91,NE,43,0.0,0.0,94,0.00,,SCT045,0.00,VWS V14.00,2013-06-27 07:31:00,
2013-06-27 03:36:00,67.0,65.2,29.91,NE,43,0.0,0.0,94,0.00,,SCT045,0.00,VWS V14.00,2013-06-27 07:36:00,
2013-06-27 03:42:00,67.2,65.4,29.91,NE,43,0.0,0.0,94,0.00,,SCT045,0.00,VWS V14.00,2013-06-27 07:42:00,
2013-06-27 03:47:00,67.2,65.1,29.88,NE,43,0.0,0.0,93,0.00,,SCT045,0.00,VWS V14.00,2013-06-27 07:47:00,
2013-06-27 03:52:00,67.0,64.9,29.88,NE,43,0.0,0.0,93,0.00,,SCT045,0.00,VWS V14.00,2013-06-27 07:52:00,
2013-06-27 03:57:00,67.0,64.9,29.88,NE,43,0.0,0.0,93,0.00,,SCT045,0.00,VWS V14.00,2013-06-27 07:57:00,
2013-06-27 04:02:00,67.0,64.9,29.88,NE,43,0.0,0.0,93,0.00,,SCT045,0.00,VWS V14.00,2013-06-27 08:02:00,
2013-06-27 04:07:00,66.8,65.0,29.88,NE,43,0.0,0.0,94,0.00,,SCT110,0.00,VWS V14.00,2013-06-27 08:07:00,
2013-06-27 04:12:00,67.0,65.2,29.88,NE,43,0.0,0.0,94,0.00,,SCT110,0.00,VWS V14.00,2013-06-27 08:12:00,
2013-06-27 04:17:00,66.8,65.0,29.88,NE,43,0.0,0.0,94,0.00,,SCT110,0.00,VWS V14.00,2013-06-27 08:17:00,
2013-06-27 04:23:00,66.8,65.0,29.88,NE,43,0.0,0.0,94,0.00,,SCT110,0.00,VWS V14.00,2013-06-27 08:23:00,
2013-06-27 04:28:00,66.8,65.0,29.88,NE,43,0.0,0.0,94,0.00,,SCT110,0.00,VWS V14.00,2013-06-27 08:28:00,
2013-06-27 04:33:00,66.8,65.0,29.88,NE,43,0.0,0.0,94,0.00,,SCT110,0.00,VWS V14.00,2013-06-27 08:33:00,
2013-06-27 04:38:00,66.8,65.3,29.88,NE,43,0.0,0.0,95,0.00,,SCT110,0.00,VWS V14.00,2013-06-27 08:38:00,
2013-06-27 04:43:00,66.6,65.2,29.88,NE,43,0.0,0.0,95,0.00,,SCT110,0.00,VWS V14.00,2013-06-27 08:43:00,
2013-06-27 04:48:00,66.6,65.2,29.85,NE,43,0.0,0.0,95,0.00,,SCT110,0.00,VWS V14.00,2013-06-27 08:48:00,
2013-06-27 04:53:00,66.6,65.2,29.85,NE,43,0.0,0.0,95,0.00,,SCT110,0.00,VWS V14.00,2013-06-27 08:53:00,
2013-06-27 04:58:00,66.6,65.5,29.85,NE,43,0.0,0.0,96,0.00,,SCT110,0.00,VWS V14.00,2013-06-27 08:58:00,
2013-06-27 05:03:00,66.8,65.6,29.85,NE,43,0.0,0.0,96,0.00,,CLR,0.00,VWS V14.00,2013-06-27 09:03:00,
2013-06-27 05:08:00,66.8,65.6,29.85,NE,43,0.0,0.0,96,0.00,,CLR,0.00,VWS V14.00,2013-06-27 09:08:00,
2013-06-27 05:14:00,66.8,65.6,29.85,NE,43,0.0,0.0,96,0.00,,CLR,0.00,VWS V14.00,2013-06-27 09:14:00,
2013-06-27 05:19:00,66.8,65.6,29.85,NE,43,0.0,0.0,96,0.00,,CLR,0.00,VWS V14.00,2013-06-27 09:19:00,
2013-06-27 05:24:00,66.6,65.2,29.85,NE,43,0.0,0.0,95,0.00,,CLR,0.00,VWS V14.00,2013-06-27 09:24:00,
2013-06-27 05:29:00,66.4,65.0,29.85,NE,43,0.0,0.0,95,0.00,,CLR,0.00,VWS V14.00,2013-06-27 09:29:00,
2013-06-27 05:34:00,66.4,65.0,29.85,NE,43,0.0,0.0,95,0.00,,BKN032,0.00,VWS V14.00,2013-06-27 09:34:00,
2013-06-27 05:39:00,66.1,64.6,29.85,NE,43,0.0,0.0,95,0.00,,BKN032,0.00,VWS V14.00,2013-06-27 09:39:00,
2013-06-27 05:44:00,66.3,64.8,29.85,NE,43,0.0,0.0,95,0.00,,BKN032,0.00,VWS V14.00,2013-06-27 09:44:00,
2013-06-27 05:49:00,66.3,64.8,29.85,NE,43,0.0,0.0,95,0.00,,BKN032,0.00,VWS V14.00,2013-06-27 09:49:00,
2013-06-27 05:55:00,65.9,64.7,29.85,NE,43,0.0,0.0,96,0.00,,BKN032,0.00,VWS V14.00,2013-06-27 09:55:00,
2013-06-27 06:00:00,65.7,64.5,29.85,NE,43,0.0,0.0,96,0.00,,BKN032,0.00,VWS V14.00,2013-06-27 10:00:00,
2013-06-27 06:05:00,65.5,64.7,29.85,NE,43,0.0,0.0,97,0.00,,OVC033,0.00,VWS V14.00,2013-06-27 10:05:00,
2013-06-27 06:10:00,65.7,64.8,29.85,NE,43,0.0,0.0,97,0.00,,OVC033,0.00,VWS V14.00,2013-06-27 10:10:00,
2013-06-27 06:15:00,66.1,65.2,29.85,NE,43,0.0,0.0,97,0.00,,OVC033,0.00,VWS V14.00,2013-06-27 10:15:00,
2013-06-27 06:20:00,66.1,65.2,29.85,NE,43,0.0,0.0,97,0.00,,OVC033,0.00,VWS V14.00,2013-06-27 10:20:00,
2013-06-27 06:25:00,66.1,65.2,29.85,NE,43,0.0,0.0,97,0.00,,OVC033,0.00,VWS V14.00,2013-06-27 10:25:00,
2013-06-27 06:30:00,66.1,65.2,29.85,NE,43,0.0,0.0,97,0.00,,OVC033,0.00,VWS V14.00,2013-06-27 10:30:00,
2013-06-27 06:35:00,66.1,65.2,29.85,SSE,147,0.0,2.7,97,0.00,,OVC033,0.00,VWS V14.00,2013-06-27 10:35:00,
2013-06-27 06:40:00,66.1,65.5,29.85,East,97,0.0,0.0,98,0.00,,OVC033,0.00,VWS V14.00,2013-06-27 10:40:00,
2013-06-27 06:45:00,66.1,65.5,29.85,East,97,0.0,0.0,98,0.00,,OVC033,0.00,VWS V14.00,2013-06-27 10:45:00,
2013-06-27 06:51:00,66.1,65.5,29.85,East,97,0.0,0.0,98,0.00,,OVC033,0.00,VWS V14.00,2013-06-27 10:51:00,
2013-06-27 06:56:00,66.3,65.7,29.85,East,97,0.0,0.0,98,0.00,,OVC033,0.00,VWS V14.00,2013-06-27 10:56:00,
2013-06-27 07:01:00,66.4,65.9,29.85,East,97,0.0,0.0,98,0.00,,OVC033,0.00,VWS V14.00,2013-06-27 11:01:00,
2013-06-27 07:06:00,66.6,66.1,29.85,WNW,299,0.0,0.0,98,0.00,, +RA,0.00,VWS V14.00,2013-06-27 11:06:00,
2013-06-27 07:11:00,66.6,66.1,29.85,West,279,0.0,3.8,98,0.00,, +RA,0.00,VWS V14.00,2013-06-27 11:11:00,
2013-06-27 07:16:00,66.4,65.9,29.85,West,279,0.0,0.0,98,0.00,,-RA,0.00,VWS V14.00,2013-06-27 11:16:00,
2013-06-27 07:21:00,66.4,65.9,29.85,West,267,0.0,3.2,98,0.00,,-RA,0.00,VWS V14.00,2013-06-27 11:21:00,
2013-06-27 07:26:00,66.6,66.1,29.85,ESE,121,3.0,4.3,98,0.00,,-RA,0.00,VWS V14.00,2013-06-27 11:26:00,
2013-06-27 07:31:00,66.6,66.1,29.85,WNW,293,6.4,7.0,98,0.00,,-RA,0.00,VWS V14.00,2013-06-27 11:31:00,
2013-06-27 07:36:00,66.6,66.1,29.85,West,268,0.0,2.7,98,0.00,,-RA,0.00,VWS V14.00,2013-06-27 11:36:00,
2013-06-27 07:41:00,66.6,66.1,29.85,West,268,2.5,2.7,98,0.00,,-RA,0.00,VWS V14.00,2013-06-27 11:41:00,
2013-06-27 07:47:00,66.6,66.1,29.85,NW,314,3.4,3.8,98,0.00,,OVC070,0.00,VWS V14.00,2013-06-27 11:47:00,
2013-06-27 07:52:00,66.8,66.2,29.85,NW,314,0.0,2.7,98,0.00,,OVC070,0.00,VWS V14.00,2013-06-27 11:52:00,
2013-06-27 07:57:00,66.8,66.2,29.85,NW,314,0.0,0.0,98,0.00,,OVC070,0.00,VWS V14.00,2013-06-27 11:57:00,
2013-06-27 08:02:00,67.0,66.4,29.85,NW,315,0.0,0.0,98,0.00,,-RA,0.00,VWS V14.00,2013-06-27 12:02:00,
2013-06-27 08:07:00,67.0,66.4,29.85,NW,314,2.5,3.2,98,0.00,,-RA,0.00,VWS V14.00,2013-06-27 12:07:00,
2013-06-27 08:12:00,67.2,66.6,29.85,NW,314,0.0,0.0,98,0.00,,-RA,0.00,VWS V14.00,2013-06-27 12:12:00,
2013-06-27 08:17:00,67.4,66.8,29.85,NW,314,0.0,0.0,98,0.00,,-RA,0.00,VWS V14.00,2013-06-27 12:17:00,
2013-06-27 08:22:00,67.6,67.0,29.85,South,183,3.0,3.2,98,0.00,,-RA,0.00,VWS V14.00,2013-06-27 12:22:00,
2013-06-27 08:27:00,67.7,67.2,29.85,SSE,168,3.9,4.3,98,0.00,,-RA,0.00,VWS V14.00,2013-06-27 12:27:00,
2013-06-27 08:32:00,67.9,67.3,29.85,SSW,204,3.0,3.8,98,0.00,,-RA,0.00,VWS V14.00,2013-06-27 12:32:00,
2013-06-27 08:37:00,67.9,67.3,29.85,South,188,0.0,2.7,98,0.00,,-RA,0.00,VWS V14.00,2013-06-27 12:37:00,
2013-06-27 08:42:00,68.1,67.5,29.85,South,182,3.9,4.8,98,0.00,,-RA,0.00,VWS V14.00,2013-06-27 12:42:00,
2013-06-27 08:48:00,68.5,67.9,29.85,SSW,198,3.4,4.8,98,0.00,,-RA,0.00,VWS V14.00,2013-06-27 12:48:00,
2013-06-27 08:53:00,68.7,68.1,29.85,SSE,160,2.5,3.8,98,0.00,,-RA,0.00,VWS V14.00,2013-06-27 12:53:00,
2013-06-27 08:58:00,68.7,68.1,29.85,SE,132,4.9,5.9,98,0.00,,-RA,0.00,VWS V14.00,2013-06-27 12:58:00,
2013-06-27 09:03:00,68.8,68.3,29.85,SE,130,3.0,4.3,98,0.00,,OVC012,0.00,VWS V14.00,2013-06-27 13:03:00,
2013-06-27 09:08:00,69.0,68.5,29.85,SSW,212,4.4,7.5,98,0.00,,OVC012,0.00,VWS V14.00,2013-06-27 13:08:00,
2013-06-27 09:13:00,69.0,68.5,29.85,SSW,196,6.9,7.5,98,0.00,,OVC012,0.00,VWS V14.00,2013-06-27 13:13:00,
2013-06-27 09:18:00,69.0,68.2,29.85,South,181,6.4,7.0,97,0.00,,OVC012,0.00,VWS V14.00,2013-06-27 13:18:00,
2013-06-27 09:23:00,69.2,68.0,29.85,South,173,3.9,6.4,96,0.00,,OVC012,0.00,VWS V14.00,2013-06-27 13:23:00,
2013-06-27 09:28:00,69.4,67.9,29.85,SE,137,3.4,7.5,95,0.00,,OVC012,0.00,VWS V14.00,2013-06-27 13:28:00,
2013-06-27 09:33:00,69.4,67.3,29.85,SSE,154,3.9,7.0,93,0.00,, +RA,0.00,VWS V14.00,2013-06-27 13:33:00,
2013-06-27 09:38:00,69.4,67.3,29.85,SSE,152,3.0,4.8,93,0.00,, +RA,0.00,VWS V14.00,2013-06-27 13:38:00,
2013-06-27 09:43:00,69.2,67.1,29.85,South,174,3.4,7.5,93,0.00,, +RA,0.00,VWS V14.00,2013-06-27 13:43:00,
2013-06-27 09:49:00,69.0,67.2,29.85,SSE,147,4.4,4.8,94,0.01,,-RA,0.01,VWS V14.00,2013-06-27 13:49:00,
2013-06-27 09:54:00,68.8,67.4,29.85,SSE,166,4.4,6.4,95,0.01,,-RA,0.01,VWS V14.00,2013-06-27 13:54:00,
2013-06-27 09:59:00,68.8,67.1,29.85,SSE,165,3.4,4.8,94,0.01,,-RA,0.01,VWS V14.00,2013-06-27 13:59:00,
2013-06-27 10:04:00,68.8,67.1,29.85,SSW,200,3.9,7.5,94,0.01,,-RA,0.01,VWS V14.00,2013-06-27 14:04:00,
2013-06-27 10:09:00,68.8,67.1,29.85,SW,222,6.4,7.0,94,0.01,,-RA,0.01,VWS V14.00,2013-06-27 14:09:00,
2013-06-27 10:14:00,69.0,66.9,29.85,South,188,4.4,7.5,93,0.01,,-RA,0.01,VWS V14.00,2013-06-27 14:14:00,
2013-06-27 10:19:00,69.0,66.6,29.85,SSE,163,4.4,7.0,92,0.01,,RA,0.01,VWS V14.00,2013-06-27 14:19:00,
2013-06-27 10:24:00,69.0,66.6,29.85,South,178,6.4,7.0,92,0.01,,RA,0.01,VWS V14.00,2013-06-27 14:24:00,
2013-06-27 10:29:00,69.0,66.6,29.85,SSW,200,3.4,5.4,92,0.01,,RA,0.01,VWS V14.00,2013-06-27 14:29:00,
2013-06-27 10:34:00,69.0,66.6,29.85,South,173,3.0,4.8,92,0.01,,-RA,0.01,VWS V14.00,2013-06-27 14:34:00,
2013-06-27 10:40:00,69.0,66.6,29.85,SW,216,3.4,4.8,92,0.01,,-RA,0.01,VWS V14.00,2013-06-27 14:40:00,
2013-06-27 10:45:00,69.0,67.2,29.85,SSW,195,5.4,5.9,94,0.01,,-RA,0.01,VWS V14.00,2013-06-27 14:45:00,
2013-06-27 10:50:00,69.0,67.6,29.85,SE,135,4.4,4.8,95,0.01,,-RA,0.02,VWS V14.00,2013-06-27 14:50:00,
2013-06-27 10:55:00,69.0,67.6,29.85,South,184,4.4,4.8,95,0.01,,-RA,0.02,VWS V14.00,2013-06-27 14:55:00,
2013-06-27 11:00:00,69.0,67.6,29.85,SSW,205,3.0,4.8,95,0.01,,-RA,0.02,VWS V14.00,2013-06-27 15:00:00,
2013-06-27 11:05:00,69.0,67.2,29.85,South,187,3.9,4.3,94,0.01,,RA,0.02,VWS V14.00,2013-06-27 15:05:00,
2013-06-27 11:10:00,69.2,67.4,29.85,SE,146,3.9,6.4,94,0.01,,RA,0.02,VWS V14.00,2013-06-27 15:10:00,
2013-06-27 11:15:00,69.2,67.4,29.85,SSW,203,3.0,4.8,94,0.01,,RA,0.02,VWS V14.00,2013-06-27 15:15:00,
2013-06-27 11:20:00,69.2,66.5,29.85,WSW,243,5.4,5.9,91,0.01,, +RA,0.02,VWS V14.00,2013-06-27 15:20:00,
2013-06-27 11:25:00,69.6,66.5,29.85,WNW,288,3.9,7.0,90,0.01,, +RA,0.02,VWS V14.00,2013-06-27 15:25:00,
2013-06-27 11:30:00,69.8,66.4,29.85,West,270,5.9,6.4,89,0.01,, +RA,0.02,VWS V14.00,2013-06-27 15:30:00,
2013-06-27 11:35:00,70.0,66.6,29.85,WSW,243,3.4,4.8,89,0.01,,-RA,0.02,VWS V14.00,2013-06-27 15:35:00,
2013-06-27 11:40:00,70.0,65.9,29.85,SSW,194,3.9,4.8,87,0.01,,-RA,0.02,VWS V14.00,2013-06-27 15:40:00,
2013-06-27 11:46:00,70.0,65.6,29.85,SSE,150,4.4,6.4,86,0.01,,-RA,0.02,VWS V14.00,2013-06-27 15:46:00,
2013-06-27 11:51:00,70.0,64.9,29.85,West,260,2.5,3.2,84,0.00,,-RA,0.02,VWS V14.00,2013-06-27 15:51:00,
2013-06-27 11:56:00,70.0,65.3,29.85,WSW,243,3.0,3.2,85,0.00,,-RA,0.02,VWS V14.00,2013-06-27 15:56:00,
2013-06-27 12:01:00,70.0,65.6,29.85,South,174,2.5,4.3,86,0.00,,-RA,0.02,VWS V14.00,2013-06-27 16:01:00,
2013-06-27 12:06:00,70.0,65.9,29.85,SSE,166,3.4,6.4,87,0.00,,OVC027,0.02,VWS V14.00,2013-06-27 16:06:00,
2013-06-27 12:11:00,70.2,66.1,29.85,South,186,3.0,4.8,87,0.00,,OVC027,0.02,VWS V14.00,2013-06-27 16:11:00,
2013-06-27 12:16:00,70.3,66.3,29.85,SSE,168,4.4,7.5,87,0.00,,OVC027,0.02,VWS V14.00,2013-06-27 16:16:00,
2013-06-27 12:21:00,70.3,65.6,29.85,SSW,201,6.4,7.0,85,0.00,,OVC027,0.02,VWS V14.00,2013-06-27 16:21:00,
2013-06-27 12:26:00,70.3,64.9,29.85,SW,220,6.4,7.0,83,0.00,,OVC027,0.02,VWS V14.00,2013-06-27 16:26:00,
2013-06-27 12:32:00,70.3,64.9,29.85,South,175,4.4,7.0,83,0.00,,OVC027,0.02,VWS V14.00,2013-06-27 16:32:00,
2013-06-27 12:37:00,70.3,64.6,29.85,SSW,198,5.9,6.4,82,0.00,,OVC027,0.02,VWS V14.00,2013-06-27 16:37:00,
2013-06-27 12:42:00,70.3,64.6,29.85,South,184,0.0,2.7,82,0.00,,OVC027,0.02,VWS V14.00,2013-06-27 16:42:00,
2013-06-27 12:47:00,70.3,64.6,29.85,South,169,3.4,4.3,82,0.00,,OVC027,0.02,VWS V14.00,2013-06-27 16:47:00,
2013-06-27 12:52:00,70.3,64.9,29.85,SSE,147,3.4,3.8,83,0.00,,OVC027,0.02,VWS V14.00,2013-06-27 16:52:00,
2013-06-27 12:57:00,70.3,65.6,29.85,WSW,241,5.9,6.4,85,0.00,,OVC027,0.02,VWS V14.00,2013-06-27 16:57:00,
2013-06-27 13:02:00,70.0,65.6,29.85,SSE,152,8.4,9.1,86,0.00,,OVC027,0.02,VWS V14.00,2013-06-27 17:02:00,
2013-06-27 13:07:00,69.8,65.7,29.85,SW,217,3.0,6.4,87,0.00,,-RA,0.02,VWS V14.00,2013-06-27 17:07:00,
2013-06-27 13:12:00,69.8,66.1,29.85,SSE,160,7.4,8.1,88,0.00,,-RA,0.02,VWS V14.00,2013-06-27 17:12:00,
2013-06-27 13:17:00,69.8,66.1,29.85,SW,229,4.4,4.8,88,0.00,,-RA,0.02,VWS V14.00,2013-06-27 17:17:00,
2013-06-27 13:22:00,70.0,66.2,29.85,South,177,6.4,7.0,88,0.00,,-RA,0.02,VWS V14.00,2013-06-27 17:22:00,
2013-06-27 13:27:00,70.0,66.2,29.85,SSW,197,5.9,6.4,88,0.00,,-RA,0.02,VWS V14.00,2013-06-27 17:27:00,
2013-06-27 13:32:00,70.0,66.2,29.85,WSW,247,3.0,4.8,88,0.00,,-RA,0.02,VWS V14.00,2013-06-27 17:32:00,
2013-06-27 13:37:00,70.2,66.4,29.85,SE,145,4.4,4.8,88,0.00,,-RA,0.02,VWS V14.00,2013-06-27 17:37:00,
2013-06-27 13:42:00,70.3,66.6,29.85,South,173,8.4,9.1,88,0.00,,-RA,0.02,VWS V14.00,2013-06-27 17:42:00,
2013-06-27 13:47:00,70.7,67.0,29.85,SE,141,2.5,5.9,88,0.00,,OVC012,0.02,VWS V14.00,2013-06-27 17:47:00,
2013-06-27 13:53:00,70.7,66.7,29.85,South,185,6.9,7.5,87,0.00,,OVC012,0.02,VWS V14.00,2013-06-27 17:53:00,
2013-06-27 13:58:00,70.7,66.3,29.85,SE,129,3.4,7.5,86,0.00,,OVC012,0.02,VWS V14.00,2013-06-27 17:58:00,
2013-06-27 14:03:00,70.7,66.0,29.85,South,189,6.4,12.6,85,0.00,,OVC012,0.02,VWS V14.00,2013-06-27 18:03:00,
2013-06-27 14:08:00,70.7,66.0,29.85,SE,131,5.9,7.5,85,0.00,,OVC013,0.02,VWS V14.00,2013-06-27 18:08:00,
2013-06-27 14:13:00,70.9,66.2,29.85,ESE,121,6.4,7.0,85,0.00,,OVC013,0.02,VWS V14.00,2013-06-27 18:13:00,
2013-06-27 14:18:00,70.5,65.5,29.85,ESE,122,6.4,7.0,84,0.00,,OVC008,0.02,VWS V14.00,2013-06-27 18:18:00,
2013-06-27 14:23:00,70.5,65.1,29.85,SW,216,5.4,6.4,83,0.00,,OVC008,0.02,VWS V14.00,2013-06-27 18:23:00,
2013-06-27 14:28:00,70.7,65.6,29.85,South,173,9.6,10.5,84,0.00,,OVC008,0.02,VWS V14.00,2013-06-27 18:28:00,
2013-06-27 14:33:00,70.7,65.3,29.85,SSE,167,6.9,9.1,83,0.00,,OVC008,0.02,VWS V14.00,2013-06-27 18:33:00,
2013-06-27 14:38:00,70.7,65.3,29.85,South,187,5.9,6.4,83,0.00,,OVC008,0.02,VWS V14.00,2013-06-27 18:38:00,
2013-06-27 14:43:00,70.9,65.8,29.85,ESE,110,5.9,6.4,84,0.00,,OVC008,0.02,VWS V14.00,2013-06-27 18:43:00,
2013-06-27 14:48:00,70.9,65.1,29.85,SSE,156,4.4,4.8,82,0.00,,OVC008,0.02,VWS V14.00,2013-06-27 18:48:00,
2013-06-27 14:53:00,71.4,66.4,29.85,SSW,213,3.0,4.8,84,0.00,,OVC008,0.02,VWS V14.00,2013-06-27 18:53:00,
2013-06-27 14:58:00,71.3,65.1,29.85,SSW,208,5.9,7.5,81,0.00,,OVC008,0.02,VWS V14.00,2013-06-27 18:58:00,
2013-06-27 15:04:00,71.6,65.8,29.82,SSW,212,5.9,7.5,82,0.00,,OVC008,0.02,VWS V14.00,2013-06-27 19:04:00,
2013-06-27 15:09:00,71.4,65.7,29.82,SSE,163,3.0,4.8,82,0.00,,OVC008,0.02,VWS V14.00,2013-06-27 19:09:00,
2013-06-27 15:14:00,71.4,65.7,29.82,SSW,206,3.9,7.5,82,0.00,,OVC008,0.02,VWS V14.00,2013-06-27 19:14:00,
2013-06-27 15:19:00,71.4,65.3,29.82,SSE,152,5.4,8.1,81,0.00,,OVC008,0.02,VWS V14.00,2013-06-27 19:19:00,
2013-06-27 15:24:00,71.3,65.5,29.82,SSE,167,4.4,6.4,82,0.00,,OVC008,0.02,VWS V14.00,2013-06-27 19:24:00,
2013-06-27 15:29:00,71.6,65.8,29.82,SW,229,3.0,4.8,82,0.00,,OVC008,0.02,VWS V14.00,2013-06-27 19:29:00,
2013-06-27 15:34:00,71.6,65.8,29.82,South,173,5.9,7.0,82,0.00,,OVC008,0.02,VWS V14.00,2013-06-27 19:34:00,
2013-06-27 15:39:00,72.4,66.2,29.82,South,172,5.4,7.5,81,0.00,,OVC008,0.02,VWS V14.00,2013-06-27 19:39:00,
2013-06-27 15:44:00,72.8,66.2,29.82,SSW,209,4.4,7.5,80,0.00,,OVC008,0.02,VWS V14.00,2013-06-27 19:44:00,
2013-06-27 15:49:00,72.9,66.8,29.82,SSE,157,3.0,7.5,81,0.00,,OVC017,0.02,VWS V14.00,2013-06-27 19:49:00,
2013-06-27 15:54:00,72.9,66.4,29.82,SSW,207,4.4,7.5,80,0.00,,OVC017,0.02,VWS V14.00,2013-06-27 19:54:00,
2013-06-27 15:59:00,72.9,66.0,29.82,SSW,192,4.9,7.0,79,0.00,,OVC017,0.02,VWS V14.00,2013-06-27 19:59:00,
2013-06-27 16:04:00,72.8,65.9,29.82,SSE,160,8.9,9.7,79,0.00,,OVC028,0.02,VWS V14.00,2013-06-27 20:04:00,
2013-06-27 16:09:00,72.6,65.7,29.82,SSE,168,4.4,6.4,79,0.00,,OVC028,0.02,VWS V14.00,2013-06-27 20:09:00,
2013-06-27 16:15:00,72.2,66.0,29.82,SSE,163,0.0,0.0,81,0.01,,OVC028,0.03,VWS V14.00,2013-06-27 20:15:00,
2013-06-27 16:20:00,72.2,66.8,29.82,SSW,210,3.0,4.8,83,0.01,,OVC028,0.03,VWS V14.00,2013-06-27 20:20:00,
2013-06-27 16:25:00,72.4,67.6,29.82,SSW,206,3.9,6.4,85,0.01,,OVC028,0.03,VWS V14.00,2013-06-27 20:25:00,
2013-06-27 16:30:00,72.9,68.2,29.82,SW,216,3.4,6.4,85,0.01,,OVC028,0.03,VWS V14.00,2013-06-27 20:30:00,
2013-06-27 16:35:00,73.1,68.3,29.82,West,270,3.4,4.3,85,0.01,,OVC034,0.03,VWS V14.00,2013-06-27 20:35:00,
2013-06-27 16:40:00,73.3,66.8,29.82,West,281,5.9,7.5,80,0.01,,OVC034,0.03,VWS V14.00,2013-06-27 20:40:00,
2013-06-27 16:45:00,74.8,66.7,29.82,West,278,7.4,12.6,76,0.01,,OVC034,0.03,VWS V14.00,2013-06-27 20:45:00,
2013-06-27 16:51:00,75.9,65.8,29.82,SW,232,7.4,9.9,71,0.01,,OVC034,0.03,VWS V14.00,2013-06-27 20:51:00,
2013-06-27 16:56:00,75.0,64.5,29.82,NW,310,9.1,9.9,70,0.01,,OVC034,0.03,VWS V14.00,2013-06-27 20:56:00,
2013-06-27 17:01:00,74.6,64.6,29.82,NW,324,5.9,6.4,71,0.01,,OVC034,0.03,VWS V14.00,2013-06-27 21:01:00,
2013-06-27 17:06:00,74.6,64.2,29.82,West,264,3.9,9.9,70,0.01,,OVC022,0.03,VWS V14.00,2013-06-27 21:06:00,
2013-06-27 17:11:00,74.6,63.8,29.82,West,264,4.4,9.1,69,0.01,,OVC022,0.03,VWS V14.00,2013-06-27 21:11:00,
2013-06-27 17:16:00,74.6,63.3,29.79,WSW,258,6.4,9.7,68,0.00,,OVC022,0.03,VWS V14.00,2013-06-27 21:16:00,
2013-06-27 17:21:00,74.2,62.6,29.79,WSW,238,8.4,9.1,67,0.00,,OVC022,0.03,VWS V14.00,2013-06-27 21:21:00,
2013-06-27 17:27:00,73.9,63.1,29.79,WSW,251,3.9,4.3,69,0.00,,OVC022,0.03,VWS V14.00,2013-06-27 21:27:00,
2013-06-27 17:32:00,73.5,62.7,29.82,WSW,255,5.9,9.7,69,0.00,,OVC022,0.03,VWS V14.00,2013-06-27 21:32:00,
2013-06-27 17:37:00,73.3,62.9,29.82,SW,223,5.4,5.9,70,0.00,,OVC022,0.03,VWS V14.00,2013-06-27 21:37:00,
2013-06-27 17:42:00,73.1,62.8,29.82,SW,231,6.9,7.5,70,0.00,,OVC022,0.03,VWS V14.00,2013-06-27 21:42:00,
2013-06-27 17:47:00,73.1,62.8,29.79,SW,229,6.9,7.5,70,0.00,,-RA,0.03,VWS V14.00,2013-06-27 21:47:00,
2013-06-27 17:52:00,73.3,63.3,29.79,SW,222,3.0,3.8,71,0.00,,-RA,0.03,VWS V14.00,2013-06-27 21:52:00,
2013-06-27 17:58:00,73.3,63.7,29.79,SW,228,6.9,9.7,72,0.00,,-RA,0.03,VWS V14.00,2013-06-27 21:58:00,
2013-06-27 18:03:00,73.7,63.7,29.79,WSW,244,8.4,9.7,71,0.00,,-RA,0.03,VWS V14.00,2013-06-27 22:03:00,
2013-06-27 18:08:00,74.8,64.4,29.79,West,275,9.6,10.5,70,0.00,,-RA,0.03,VWS V14.00,2013-06-27 22:08:00,
2013-06-27 18:13:00,74.8,64.0,29.79,WNW,298,8.4,9.7,69,0.00,,-RA,0.03,VWS V14.00,2013-06-27 22:13:00,
2013-06-27 18:19:00,74.1,63.2,29.79,WSW,253,5.9,7.5,69,0.00,,BKN021,0.03,VWS V14.00,2013-06-27 22:19:00,
2013-06-27 18:24:00,73.9,63.1,29.79,West,263,6.4,7.0,69,0.00,,BKN021,0.03,VWS V14.00,2013-06-27 22:24:00,
2013-06-27 18:29:00,75.3,64.9,29.79,SW,231,6.4,7.0,70,0.00,,BKN021,0.03,VWS V14.00,2013-06-27 22:29:00,
2013-06-27 18:34:00,74.6,63.3,29.79,WNW,288,3.0,6.4,68,0.00,,BKN019,0.03,VWS V14.00,2013-06-27 22:34:00,
2013-06-27 18:39:00,73.9,62.7,29.79,WNW,288,7.4,10.5,68,0.00,,BKN019,0.03,VWS V14.00,2013-06-27 22:39:00,
2013-06-27 18:44:00,73.7,62.9,29.79,WSW,245,3.9,5.9,69,0.00,,BKN019,0.03,VWS V14.00,2013-06-27 22:44:00,
2013-06-27 18:49:00,73.5,63.1,29.79,NW,306,3.9,4.8,70,0.00,,BKN019,0.03,VWS V14.00,2013-06-27 22:49:00,
2013-06-27 18:54:00,73.1,63.2,29.79,West,265,12.1,13.2,71,0.00,,BKN019,0.03,VWS V14.00,2013-06-27 22:54:00,
2013-06-27 18:59:00,73.1,63.2,29.79,WNW,283,6.9,9.7,71,0.00,,BKN019,0.03,VWS V14.00,2013-06-27 22:59:00,
2013-06-27 19:04:00,72.9,63.4,29.79,WNW,299,4.4,7.5,72,0.00,,OVC070,0.03,VWS V14.00,2013-06-27 23:04:00,
2013-06-27 19:09:00,72.8,63.6,29.79,WNW,299,6.9,9.9,73,0.00,,OVC070,0.03,VWS V14.00,2013-06-27 23:09:00,
2013-06-27 19:14:00,72.8,62.8,29.79,West,280,5.9,6.4,71,0.00,,OVC070,0.03,VWS V14.00,2013-06-27 23:14:00,
2013-06-27 19:20:00,72.8,63.2,29.82,West,262,6.9,7.5,72,0.00,,OVC070,0.03,VWS V14.00,2013-06-27 23:20:00,
2013-06-27 19:25:00,72.8,63.2,29.82,NW,316,9.1,9.9,72,0.00,,OVC070,0.03,VWS V14.00,2013-06-27 23:25:00,
2013-06-27 19:30:00,72.8,63.2,29.82,West,262,5.9,7.5,72,0.00,,OVC070,0.03,VWS V14.00,2013-06-27 23:30:00,
2013-06-27 19:35:00,72.8,63.2,29.82,WNW,292,5.9,10.5,72,0.00,,OVC070,0.03,VWS V14.00,2013-06-27 23:35:00,
2013-06-27 19:40:00,72.9,63.4,29.82,WSW,247,3.9,6.4,72,0.00,,OVC070,0.03,VWS V14.00,2013-06-27 23:40:00,
2013-06-27 19:45:00,72.8,63.2,29.82,South,182,3.4,5.9,72,0.00,,OVC070,0.03,VWS V14.00,2013-06-27 23:45:00,
2013-06-27 19:51:00,72.8,63.2,29.82,WSW,244,5.4,6.4,72,0.00,,BKN034,0.03,VWS V14.00,2013-06-27 23:51:00,
2013-06-27 19:56:00,72.8,63.2,29.82,SW,232,3.4,5.9,72,0.00,,BKN034,0.03,VWS V14.00,2013-06-27 23:56:00,
2013-06-27 20:01:00,72.8,63.2,29.82,West,271,4.4,4.8,72,0.00,,BKN034,0.03,VWS V14.00,2013-06-28 00:01:00,
2013-06-27 20:07:00,72.6,63.8,29.82,SW,228,3.0,4.3,74,0.00,,FEW037,0.03,VWS V14.00,2013-06-28 00:07:00,
2013-06-27 20:12:00,72.6,63.4,29.82,West,267,5.9,7.0,73,0.00,,FEW037,0.03,VWS V14.00,2013-06-28 00:12:00,
2013-06-27 20:17:00,72.6,63.8,29.82,SW,228,4.4,4.8,74,0.00,,BKN015,0.03,VWS V14.00,2013-06-28 00:17:00,
2013-06-27 20:22:00,72.6,63.8,29.82,South,187,0.0,5.9,74,0.00,,BKN015,0.03,VWS V14.00,2013-06-28 00:22:00,
2013-06-27 20:28:00,72.6,63.4,29.82,SW,221,3.9,4.3,73,0.00,,BKN015,0.03,VWS V14.00,2013-06-28 00:28:00,
2013-06-27 20:33:00,72.6,63.0,29.82,NNW,336,3.4,7.0,72,0.00,,BKN015,0.03,VWS V14.00,2013-06-28 00:33:00,
2013-06-27 20:39:00,72.6,63.4,29.82,SSW,204,3.9,5.9,73,0.00,,BKN015,0.03,VWS V14.00,2013-06-28 00:39:00,
2013-06-27 20:44:00,72.4,63.2,29.82,SW,232,3.0,4.8,73,0.00,,BKN015,0.03,VWS V14.00,2013-06-28 00:44:00,
2013-06-27 20:49:00,72.4,63.2,29.82,WNW,294,6.9,12.1,73,0.00,,BKN015,0.03,VWS V14.00,2013-06-28 00:49:00,
2013-06-27 20:54:00,72.6,63.0,29.82,SW,230,3.4,4.8,72,0.00,,BKN015,0.03,VWS V14.00,2013-06-28 00:54:00,
2013-06-27 21:00:00,72.4,63.2,29.82,SSE,168,3.9,7.5,73,0.00,,BKN015,0.00,VWS V14.00,2013-06-28 01:00:00,
2013-06-27 21:05:00,72.4,63.2,29.82,WSW,245,3.4,3.8,73,0.00,,SCT017,0.03,VWS V14.00,2013-06-28 01:05:00,
2013-06-27 21:10:00,72.2,63.5,29.82,WNW,298,4.4,4.8,74,0.00,,SCT017,0.03,VWS V14.00,2013-06-28 01:10:00,
2013-06-27 21:15:00,72.2,63.5,29.82,NW,313,3.4,4.8,74,0.00,,SCT017,0.03,VWS V14.00,2013-06-28 01:15:00,
2013-06-27 21:20:00,72.2,63.8,29.82,SW,222,4.4,4.8,75,0.00,,BKN024,0.03,VWS V14.00,2013-06-28 01:20:00,
2013-06-27 21:25:00,72.2,63.8,29.82,West,259,4.4,5.9,75,0.00,,BKN024,0.03,VWS V14.00,2013-06-28 01:25:00,
2013-06-27 21:30:00,72.2,63.8,29.82,WSW,243,0.0,3.2,75,0.00,,BKN024,0.03,VWS V14.00,2013-06-28 01:30:00,
2013-06-27 21:35:00,72.2,63.8,29.82,SW,222,0.0,3.2,75,0.00,,BKN023,0.03,VWS V14.00,2013-06-28 01:35:00,
2013-06-27 21:41:00,72.2,63.8,29.82,SSE,157,3.4,4.3,75,0.00,,BKN023,0.03,VWS V14.00,2013-06-28 01:41:00,
2013-06-27 21:46:00,72.2,63.8,29.82,South,179,3.0,3.2,75,0.00,,BKN023,0.03,VWS V14.00,2013-06-28 01:46:00,
2013-06-27 21:51:00,72.2,63.5,29.82,South,174,2.5,4.3,74,0.00,,BKN023,0.03,VWS V14.00,2013-06-28 01:51:00,
2013-06-27 21:56:00,72.2,63.8,29.82,South,182,3.4,4.8,75,0.00,,BKN023,0.03,VWS V14.00,2013-06-28 01:56:00,
2013-06-27 22:02:00,72.2,63.5,29.82,South,183,3.4,4.3,74,0.00,,BKN023,0.03,VWS V14.00,2013-06-28 02:02:00,
2013-06-27 22:07:00,72.0,63.7,29.82,SW,227,0.0,3.2,75,0.00,,SCT023,0.03,VWS V14.00,2013-06-28 02:07:00,
2013-06-27 22:12:00,71.8,63.5,29.82,SSE,154,4.4,4.8,75,0.00,,SCT023,0.03,VWS V14.00,2013-06-28 02:12:00,
2013-06-27 22:17:00,71.8,63.9,29.82,SSE,151,3.0,3.2,76,0.00,,SCT023,0.03,VWS V14.00,2013-06-28 02:17:00,
2013-06-27 22:22:00,71.6,63.7,29.82,WNW,284,3.0,3.8,76,0.00,,SCT023,0.03,VWS V14.00,2013-06-28 02:22:00,
2013-06-27 22:27:00,71.6,63.7,29.82,South,184,3.0,6.4,76,0.00,,SCT023,0.03,VWS V14.00,2013-06-28 02:27:00,
2013-06-27 22:32:00,71.6,63.7,29.82,South,178,3.4,4.8,76,0.00,,SCT023,0.03,VWS V14.00,2013-06-28 02:32:00,
2013-06-27 22:37:00,71.6,64.1,29.82,SSW,193,2.5,4.3,77,0.00,,SCT023,0.03,VWS V14.00,2013-06-28 02:37:00,
2013-06-27 22:42:00,71.4,63.9,29.82,South,188,0.0,0.0,77,0.00,,SCT023,0.03,VWS V14.00,2013-06-28 02:42:00,
2013-06-27 22:47:00,71.4,63.9,29.82,SSE,151,3.0,3.8,77,0.00,,SCT023,0.03,VWS V14.00,2013-06-28 02:47:00,
2013-06-27 22:52:00,71.3,64.1,29.82,South,175,2.5,4.3,78,0.00,,SCT023,0.03,VWS V14.00,2013-06-28 02:52:00,
2013-06-27 22:57:00,71.3,64.1,29.82,South,181,2.5,3.2,78,0.00,,SCT023,0.03,VWS V14.00,2013-06-28 02:57:00,
2013-06-27 23:03:00,71.3,64.1,29.82,SSE,158,0.0,4.3,78,0.00,,FEW037,0.03,VWS V14.00,2013-06-28 03:03:00,
2013-06-27 23:08:00,71.1,64.2,29.82,South,169,3.0,3.8,79,0.00,,FEW037,0.03,VWS V14.00,2013-06-28 03:08:00,
2013-06-27 23:13:00,70.9,64.4,29.82,SSE,168,3.9,4.8,80,0.00,,FEW037,0.03,VWS V14.00,2013-06-28 03:13:00,
2013-06-27 23:18:00,70.9,64.4,29.82,SSE,166,4.4,5.9,80,0.00,,FEW037,0.03,VWS V14.00,2013-06-28 03:18:00,
2013-06-27 23:23:00,70.9,64.4,29.82,SSE,165,3.0,4.3,80,0.00,,FEW037,0.03,VWS V14.00,2013-06-28 03:23:00,
2013-06-27 23:29:00,70.7,64.9,29.82,SSE,149,5.9,6.4,82,0.00,,FEW037,0.03,VWS V14.00,2013-06-28 03:29:00,
2013-06-27 23:34:00,70.7,64.9,29.82,WSW,239,3.4,4.8,82,0.00,,OVC037,0.03,VWS V14.00,2013-06-28 03:34:00,
2013-06-27 23:39:00,70.7,64.9,29.82,SSW,204,2.5,3.2,82,0.00,,OVC037,0.03,VWS V14.00,2013-06-28 03:39:00,
2013-06-27 23:44:00,70.7,64.9,29.82,South,183,3.9,4.3,82,0.00,,OVC037,0.03,VWS V14.00,2013-06-28 03:44:00,
2013-06-27 23:49:00,70.7,64.9,29.82,South,186,2.5,3.2,82,0.00,,OVC037,0.03,VWS V14.00,2013-06-28 03:49:00,
2013-06-27 23:55:00,70.7,65.3,29.82,South,187,3.4,3.8,83,0.00,,OVC037,0.03,VWS V14.00,2013-06-28 03:55:00,